Terminal Aerodrome Forecast
Issued by NWS Bismarck, ND

Home | Current Version | Previous Version | Graphics & Text | Print | Product List | Glossary On
Versions: 1 2 3 4 5 6 7 8 9 10 11 12 13 14 15 16
000
FTUS43 KBIS 282300
TAFISN
TAF
KISN 282321Z 2900/2924 06004KT P6SM SCT070
     FM290300 08003KT P6SM FEW060
     FM291700 03007KT P6SM FEW070=

USA.gov is the U.S. government's official web portal to all federal, state and local government web resources and services.